KSYR/SYR METAR and TAF weather

Enter ICAO airport designator
Station Type Date Time Source
KSYR METAR 2021/05/12 23:54 UTC NOAA

KSYR 122354Z 29006KT 10SM FEW040 14/M03 A3021 RMK AO2 SLP228 T01441028 10178 20144 53002


Station Type Date Time Source
KSYR Decoded METAR 2021/05/12 23:54 UTC NOAA

SYRACUSE HANCOCK INTERNATIONAL AIRPORT , NY, United States (KSYR) 43-07N 76-06W 127M
May 12, 2021 - 07:54 PM EDT / 2021.05.12 2354 UTC
Wind: from the WNW (290 degrees) at 7 MPH (6 KT):0
Visibility: 10 mile(s):0
Sky conditions: mostly clear
Temperature: 57.9 F (14.4 C)
Dew Point: 27.0 F (-2.8 C)
Relative Humidity: 30%
Pressure (altimeter): 30.21 in. Hg (1023 hPa)
Pressure tendency: 0.01 inches (0.2 hPa) higher than three hours ago
ob: KSYR 122354Z 29006KT 10SM FEW040 14/M03 A3021 RMK AO2 SLP228 T01441028 10178 20144 53002
cycle: 0

Station Type Date Time Source
KSYR TAF 2021/05/12 18:22 UTC NOAA

TAF KSYR 121720Z 1218/1318 30010G18KT P6SM FEW035
FM130000 29007KT P6SM FEW150
FM130300 25003KT P6SM FEW090
FM131400 29009KT P6SM SKC

Example: see airport list